CDT,Max TemperatureF,Mean TemperatureF,Min TemperatureF,Max Dew PointF,MeanDew PointF,Min DewpointF,Max Humidity, Mean Humidity, Min Humidity, Max Sea Level PressureIn, Mean Sea Level PressureIn, Min Sea Level PressureIn, Max VisibilityMiles, Mean VisibilityMiles, Min VisibilityMiles, Max Wind SpeedMPH, Mean Wind SpeedMPH, Max Gust SpeedMPH,PrecipitationIn, CloudCover, Events, WindDirDegrees
2013-7-1,80,69,58,56,54,51,87,64,40,30.10,30.07,30.04,10,10,8,23,10,29,0.00,0,,8
2013-7-2,81,69,56,57,55,52,93,66,39,30.12,30.09,30.05,10,10,10,15,6,18,0.00,0,,2
2013-7-3,83,68,52,61,58,53,100,72,43,30.09,30.05,30.00,10,10,5,16,2,55,0.00,2,,167
2013-7-4,85,70,54,62,58,54,100,70,40,30.09,30.05,30.00,10,9,2,10,4,16,0.00,0,,192
2013-7-5,86,72,57,64,61,56,93,69,44,30.06,30.01,29.97,10,10,7,15,6,17,0.00,0,,165
2013-7-6,89,75,61,69,65,59,93,70,47,30.02,29.98,29.93,10,9,6,13,7,18,0.00,1,,167
2013-7-7,88,77,65,69,66,62,93,72,51,30.00,29.97,29.95,10,10,8,16,8,22,0.00,1,,192
2013-7-8,90,82,74,72,69,64,79,67,55,30.06,30.01,29.98,10,10,9,16,8,21,T,3,Thunderstorm,207
2013-7-9,94,85,75,75,72,69,85,69,52,30.01,29.95,29.88,10,10,10,16,7,23,T,2,Rain,200
2013-7-10,88,80,71,74,66,59,87,65,42,30.04,29.97,29.87,10,10,8,15,9,24,0.00,1,,349
2013-7-11,84,69,54,62,57,54,100,70,40,30.12,30.09,30.04,10,8,2,13,4,17,0.00,0,,74
2013-7-12,86,70,54,62,57,53,93,64,34,30.14,30.09,30.05,10,9,6,16,8,22,0.00,0,,135
2013-7-13,79,66,52,64,59,51,93,74,54,30.12,30.09,30.05,10,10,6,13,5,16,0.00,0,,123
2013-7-14,87,73,58,65,62,57,93,68,42,30.17,30.12,30.09,10,9,2,15,6,18,0.00,1,,103
2013-7-15,90,77,63,71,68,63,100,76,52,30.24,30.20,30.17,10,8,2,21,6,24,0.00,1,,108
2013-7-16,92,80,67,73,70,66,97,75,52,30.29,30.26,30.22,10,8,1,13,5,17,0.00,0,,160
2013-7-17,93,80,67,73,69,66,100,73,46,30.33,30.30,30.22,10,7,0,6,1,9,0.00,0,Fog,249
2013-7-18,96,82,68,72,69,65,97,68,39,30.24,30.11,30.00,10,9,3,12,5,17,0.00,0,,216
2013-7-19,96,84,72,70,68,65,87,62,36,30.00,29.93,29.85,10,10,10,17,6,23,0.00,0,,230
2013-7-20,91,77,63,69,63,57,87,61,34,29.96,29.91,29.88,10,10,10,9,5,10,0.00,0,,44
2013-7-21,80,71,61,73,67,60,100,90,79,29.93,29.90,29.86,10,8,2,13,4,18,0.16,4,Rain-Thunderstorm,168
2013-7-22,91,77,62,73,66,61,100,78,55,29.94,29.85,29.78,10,5,0,30,5,39,0.47,3,Fog-Rain-Thunderstorm,185
2013-7-23,83,72,61,66,62,58,93,74,54,29.98,29.90,29.83,10,10,2,16,7,20,0.00,1,Rain-Thunderstorm,16
2013-7-24,81,69,57,60,58,56,100,73,45,30.07,30.03,29.96,10,10,9,12,4,16,0.00,1,,49
2013-7-25,86,70,54,64,58,54,100,72,44,30.13,30.08,30.04,10,7,1,12,3,15,0.00,1,,190
2013-7-26,86,71,56,70,64,52,93,69,45,30.05,30.01,29.97,10,9,2,15,7,22,0.14,5,Rain,257
2013-7-27,75,62,48,54,50,46,93,66,38,30.09,30.04,30.00,10,10,10,17,7,23,0.00,1,,330
2013-7-28,79,63,46,53,49,44,100,68,35,30.09,30.05,30.03,10,10,10,14,5,21,0.00,0,,278
2013-7-29,76,62,47,64,57,48,96,73,50,30.16,30.12,30.09,10,10,4,17,6,23,1.10,6,Rain,126
2013-7-30,76,71,65,72,68,64,100,90,79,30.09,30.05,30.02,10,6,1,13,6,17,0.11,8,Rain,64
2013-7-31,81,71,60,66,64,61,100,81,62,30.12,30.08,30.04,10,4,0,10,4,13,0.00,5,Fog,343